Time;durP1;ratioP1;P1;durP2;ratioP2;P2;SDS_P1;SDS_P2;PMS_P1;PMS_P2;Temp;Humidity;BMP_temperature;BMP_pressure;BME280_temperature;BME280_humidity;BME280_pressure;Samples;Min_cycle;Max_cycle;Signal;HPM_P1;HPM_P2
2023/01/21 00:00:56;;;;;;;14.17;6.73;;;3.00;78.00;;;3.47;49.42;99070.78;4960803;28;123586;-72
2023/01/21 00:03:23;;;;;;;9.23;6.50;;;3.00;78.00;;;3.48;49.37;99072.41;4959472;28;123022;-72
2023/01/21 00:05:50;;;;;;;10.23;5.80;;;3.00;77.90;;;3.47;49.17;99079.78;4960454;28;120036;-73
2023/01/21 00:08:18;;;;;;;11.70;6.40;;;3.00;77.80;;;3.50;49.27;99081.16;4955503;28;124408;-73
2023/01/21 00:10:44;;;;;;;10.07;5.90;;;3.00;77.70;;;3.51;49.79;99075.44;4952021;28;123801;-72
2023/01/21 00:13:11;;;;;;;11.90;7.00;;;3.10;77.80;;;3.50;49.15;99082.00;4950927;28;120269;-72
2023/01/21 00:15:37;;;;;;;11.13;7.70;;;3.00;77.50;;;3.44;49.06;99091.22;4960972;28;118950;-72
2023/01/21 00:18:04;;;;;;;12.73;7.73;;;3.00;77.60;;;3.35;49.09;99081.03;4958770;28;124508;-73
2023/01/21 00:20:30;;;;;;;10.47;7.43;;;2.80;77.80;;;3.31;49.75;99078.00;4948766;28;123665;-72
2023/01/21 00:22:57;;;;;;;13.60;7.97;;;2.80;78.00;;;3.30;49.35;99076.31;4947925;28;119101;-73
2023/01/21 00:25:23;;;;;;;11.67;6.70;;;2.80;78.10;;;3.34;49.72;99093.84;4957405;28;117665;-72
2023/01/21 00:27:51;;;;;;;13.60;7.20;;;2.80;78.20;;;3.36;49.60;99091.69;4962398;28;123226;-77
2023/01/21 00:30:18;;;;;;;15.30;7.90;;;2.90;78.30;;;3.38;49.48;99086.78;4959158;28;123694;-72
2023/01/21 00:32:44;;;;;;;11.30;6.60;;;2.90;78.30;;;3.39;49.90;99093.91;4952771;28;119159;-72
2023/01/21 00:35:11;;;;;;;11.80;6.40;;;2.90;78.30;;;3.39;49.89;99093.09;4947311;28;118634;-72
2023/01/21 00:37:37;;;;;;;13.83;6.50;;;2.90;78.20;;;3.40;49.55;99092.00;4959655;28;124507;-72
2023/01/21 00:40:26;;;;;;;8.65;6.05;;;2.90;78.00;;;3.40;49.72;99092.81;4963846;28;123147;-81
2023/01/21 00:42:53;;;;;;;14.37;7.77;;;4.40;79.50;;;3.32;49.74;99102.28;4967012;28;118245;-73
2023/01/21 00:45:19;;;;;;;16.70;8.33;;;2.90;78.30;;;3.29;50.02;99097.34;4956015;28;119233;-73
2023/01/21 00:47:46;;;;;;;12.00;7.47;;;2.80;78.50;;;3.25;50.23;99101.69;4959954;28;124532;-72
2023/01/21 00:50:12;;;;;;;15.10;6.90;;;3.30;79.20;;;3.25;49.85;99103.56;4949638;28;123807;-72
2023/01/21 00:52:39;;;;;;;11.90;7.57;;;2.70;78.90;;;3.21;50.40;99092.34;4958688;28;120398;-72
2023/01/21 00:55:06;;;;;;;15.05;9.70;;;4.10;80.30;;;3.16;50.49;99099.66;4954448;28;119841;-73
2023/01/21 00:57:32;;;;;;;17.03;9.07;;;2.60;79.30;;;3.05;50.69;99105.00;4969722;28;124093;-72
2023/01/21 00:59:59;;;;;;;16.23;7.67;;;2.50;79.40;;;3.02;50.74;99104.72;4960487;28;123808;-72
2023/01/21 01:02:25;;;;;;;13.40;7.90;;;2.50;79.60;;;3.02;50.62;99102.78;4948142;28;118563;-72
2023/01/21 01:04:52;;;;;;;16.30;8.33;;;2.60;79.70;;;3.01;50.39;99108.50;4949243;28;121012;-72
2023/01/21 01:07:18;;;;;;;16.70;9.70;;;2.50;79.60;;;2.99;50.73;99113.41;4947147;28;123973;-72
2023/01/21 01:09:45;;;;;;;14.47;8.30;;;2.50;79.60;;;2.94;50.93;99111.44;4947166;28;124370;-73
2023/01/21 01:12:11;;;;;;;12.83;8.00;;;2.40;79.70;;;2.87;50.94;99110.78;4952254;28;119008;-74
2023/01/21 01:14:38;;;;;;;15.00;8.40;;;2.30;79.70;;;2.83;50.95;99115.94;4948922;28;119657;-73
2023/01/21 01:17:04;;;;;;;13.83;7.20;;;2.30;79.70;;;2.81;51.19;99111.81;4948360;28;123872;-72
2023/01/21 01:19:31;;;;;;;16.60;7.80;;;2.30;80.00;;;2.82;51.18;99108.00;4956962;28;123688;-73
2023/01/21 01:21:57;;;;;;;8.40;6.37;;;2.30;80.00;;;2.87;51.65;99117.09;4953445;28;119195;-73
2023/01/21 01:24:24;;;;;;;14.00;6.37;;;2.40;80.10;;;2.92;51.34;99119.03;4950152;28;119078;-72
2023/01/21 01:26:50;;;;;;;12.47;6.87;;;2.40;80.00;;;2.99;51.09;99113.41;4967669;28;125049;-72
2023/01/21 01:29:17;;;;;;;11.83;7.30;;;2.50;80.10;;;3.04;51.02;99117.03;4960346;28;123676;-73
2023/01/21 01:31:43;;;;;;;10.17;6.40;;;2.60;80.00;;;3.09;50.65;99125.28;4961519;28;118881;-72
2023/01/21 01:34:10;;;;;;;15.70;7.93;;;2.60;79.90;;;3.13;51.08;99122.03;4984189;28;117644;-72
2023/01/21 01:36:36;;;;;;;11.33;7.93;;;2.60;80.00;;;3.15;51.10;99122.59;4967283;28;123027;-72
2023/01/21 01:39:04;;;;;;;10.70;6.20;;;2.70;80.00;;;3.16;51.12;99116.88;4965274;28;123949;-72
2023/01/21 01:41:34;;;;;;;15.17;6.83;;;2.70;79.90;;;3.18;50.62;99122.09;4960213;28;120043;-73
2023/01/21 01:44:04;;;;;;;12.77;8.27;;;2.70;79.80;;;3.21;51.00;99127.84;4966892;28;119749;-72
2023/01/21 01:46:35;;;;;;;11.63;7.20;;;2.70;79.70;;;3.21;50.69;99127.84;4979903;28;123793;-72
2023/01/21 01:49:13;;;;;;;12.23;7.17;;;2.70;79.50;;;3.22;50.54;99134.13;4963965;28;123740;-72
2023/01/21 01:52:00;;;;;;;10.90;7.00;;;2.70;79.50;;;3.21;50.49;99140.69;4972431;28;118742;-73
2023/01/21 01:54:35;;;;;;;9.37;6.27;;;2.70;79.50;;;3.20;50.42;99139.03;4962178;28;119255;-73
2023/01/21 01:57:06;;;;;;;12.53;7.17;;;2.70;79.50;;;3.20;50.32;99136.31;4958855;28;124003;-72
2023/01/21 01:59:32;;;;;;;13.30;8.53;;;2.70;79.50;;;3.13;50.29;99135.66;4955493;28;123161;-73
2023/01/21 02:02:06;;;;;;;11.63;6.80;;;2.60;79.30;;;3.07;50.61;99138.34;4947239;28;119268;-72
2023/01/21 02:04:41;;;;;;;12.10;6.03;;;2.50;79.40;;;3.02;50.69;99146.47;4949348;28;120672;-72
2023/01/21 02:07:08;;;;;;;12.77;6.70;;;2.50;79.50;;;2.97;50.69;99148.31;4958209;28;124198;-73
2023/01/21 02:09:34;;;;;;;14.13;8.03;;;2.50;79.40;;;2.94;50.42;99146.91;4932609;28;122465;-72
2023/01/21 02:12:04;;;;;;;13.33;7.47;;;2.50;79.40;;;2.90;50.34;99148.47;4953210;28;119325;-72
2023/01/21 02:14:32;;;;;;;12.23;7.07;;;2.40;79.30;;;2.87;51.00;99155.31;4954017;28;118671;-72
2023/01/21 02:17:30;;;;;;;13.27;7.07;;;2.40;79.40;;;2.90;50.75;99156.66;4961967;28;123870;-72
2023/01/21 02:20:47;;;;;;;10.70;6.70;;;2.40;79.50;;;2.90;51.13;99164.03;4974972;28;123801;-72
2023/01/21 02:23:19;;;;;;;7.87;5.10;;;2.40;79.50;;;2.87;50.78;99165.38;4954434;28;119321;-73
2023/01/21 02:26:13;;;;;;;11.97;6.20;;;2.50;79.50;;;2.91;50.68;99160.25;4953989;28;118783;-72
2023/01/21 02:29:23;;;;;;;10.07;5.60;;;2.50;79.40;;;2.92;50.74;99168.16;4964500;28;123809;-72
2023/01/21 02:32:18;;;;;;;11.70;6.43;;;2.50;79.30;;;2.92;50.71;99170.06;4958880;28;124210;-73
2023/01/21 02:34:56;;;;;;;9.47;5.50;;;2.60;79.30;;;2.89;50.85;99163.22;4946805;28;119917;-73
2023/01/21 02:37:53;;;;;;;8.43;6.10;;;2.50;79.20;;;2.86;50.57;99171.91;4946060;28;119911;-73
2023/01/21 02:40:49;;;;;;;12.47;7.20;;;2.40;79.00;;;2.79;50.47;99176.72;4957071;28;124036;-73
2023/01/21 02:44:04;;;;;;;8.53;5.50;;;2.30;79.00;;;2.71;50.50;99188.06;4949167;28;123488;-72
2023/01/21 02:46:41;;;;;;;10.37;5.60;;;2.20;79.00;;;2.65;50.86;99182.53;4952159;28;118912;-73
2023/01/21 02:49:27;;;;;;;6.67;4.97;;;2.20;79.10;;;2.63;50.56;99182.00;4960522;28;118349;-73
2023/01/21 02:51:54;;;;;;;8.57;5.10;;;2.20;79.10;;;2.57;50.67;99176.69;4952392;28;124019;-74
2023/01/21 02:54:38;;;;;;;9.90;6.47;;;2.10;78.90;;;2.59;50.87;99183.56;4957391;28;123627;-73
2023/01/21 02:57:13;;;;;;;8.83;5.10;;;2.10;79.10;;;2.59;50.67;99185.47;4951938;28;119450;-73
2023/01/21 02:59:47;;;;;;;12.33;5.17;;;2.20;79.20;;;2.61;50.74;99188.78;4938202;28;118226;-73
2023/01/21 03:02:50;;;;;;;8.33;5.30;;;2.20;79.20;;;2.66;50.72;99180.66;4958542;28;123668;-73
2023/01/21 03:05:47;;;;;;;10.93;6.07;;;2.20;79.10;;;2.65;50.62;99193.44;4952299;28;123116;-73
2023/01/21 03:08:38;;;;;;;11.70;5.90;;;2.20;79.00;;;2.60;50.57;99193.38;4962508;28;118609;-72
2023/01/21 03:11:17;;;;;;;11.30;6.50;;;2.20;78.90;;;2.52;50.81;99196.53;4950733;28;121024;-73
2023/01/21 03:17:19;;;;;;;12.47;8.03;;;2.00;79.10;;;2.30;50.76;99199.19;4960792;28;124341;-73
2023/01/21 03:20:20;;;;;;;11.20;7.00;;;1.80;79.40;;;2.20;51.22;99205.34;4940124;28;118698;-73
2023/01/21 03:22:49;;;;;;;12.50;7.63;;;1.70;79.60;;;2.14;51.67;99219.94;4937240;28;119062;-73
2023/01/21 03:25:16;;;;;;;12.93;6.97;;;1.70;79.80;;;2.12;51.73;99207.63;4962770;28;123740;-75
2023/01/21 03:27:45;;;;;;;9.00;6.27;;;1.60;79.80;;;2.10;51.53;99216.06;4964804;28;122818;-73
2023/01/21 03:30:18;;;;;;;12.80;7.00;;;1.60;79.90;;;2.11;51.75;99216.88;4959935;28;120082;-73
2023/01/21 03:32:49;;;;;;;13.57;7.57;;;1.60;79.90;;;2.09;51.78;99216.28;4970298;28;119201;-73
2023/01/21 03:35:28;;;;;;;10.33;6.30;;;1.60;80.00;;;2.09;51.95;99217.13;4966112;28;124043;-73
2023/01/21 03:38:08;;;;;;;13.17;7.87;;;1.60;80.10;;;2.10;51.76;99220.69;4945869;28;123595;-73
2023/01/21 03:40:49;;;;;;;13.90;7.40;;;2.80;81.20;;;2.11;51.89;99217.69;4974345;28;119241;-73
2023/01/21 03:43:16;;;;;;;12.87;6.73;;;1.70;80.20;;;2.12;51.65;99205.75;4965805;28;118765;-73
2023/01/21 03:45:53;;;;;;;11.17;6.60;;;1.70;80.20;;;2.17;51.80;99222.16;4965338;28;124205;-73
2023/01/21 03:48:47;;;;;;;9.43;6.70;;;1.70;80.20;;;2.20;51.89;99210.78;4965812;28;124098;-75
2023/01/21 03:51:24;;;;;;;11.07;6.30;;;1.70;80.10;;;2.21;52.23;99214.34;4976808;28;119665;-73
2023/01/21 03:53:58;;;;;;;7.93;5.87;;;1.80;80.20;;;2.22;51.68;99214.06;4966624;28;118848;-73
2023/01/21 03:56:26;;;;;;;10.37;6.13;;;1.80;80.20;;;2.21;51.67;99220.59;4963351;28;123879;-72
2023/01/21 03:58:53;;;;;;;10.77;6.47;;;1.80;80.20;;;2.23;51.92;99212.19;4945902;28;122575;-73
2023/01/21 04:01:20;;;;;;;11.77;7.00;;;1.80;80.20;;;2.24;51.86;99216.56;4966526;28;119225;-73
2023/01/21 04:03:46;;;;;;;10.77;6.80;;;1.80;80.20;;;2.24;51.73;99221.19;4976802;28;118838;-73
2023/01/21 04:06:20;;;;;;;9.53;6.47;;;1.80;80.30;;;2.27;51.71;99221.50;4966549;28;124113;-73
2023/01/21 04:08:47;;;;;;;12.03;6.33;;;1.80;81.00;;;2.26;51.71;99219.88;4951129;28;123614;-73
2023/01/21 04:11:14;;;;;;;10.10;6.40;;;1.80;80.30;;;2.27;51.95;99228.88;4949954;28;119160;-73
2023/01/21 04:13:42;;;;;;;10.60;7.60;;;1.80;80.30;;;2.26;51.80;99222.59;4978935;28;118817;-73
2023/01/21 04:16:09;;;;;;;10.93;6.93;;;1.80;80.30;;;2.27;51.62;99237.03;4966430;28;123972;-73
2023/01/21 04:18:35;;;;;;;15.60;7.00;;;1.90;80.40;;;2.22;51.88;99218.69;4985133;28;123065;-74
2023/01/21 04:21:01;;;;;;;16.13;7.67;;;1.80;80.30;;;2.17;51.88;99227.59;4962394;28;120273;-74
2023/01/21 04:23:28;;;;;;;13.90;7.30;;;1.70;80.40;;;2.11;51.67;99233.22;4959717;28;119616;-73
2023/01/21 04:25:54;;;;;;;12.93;8.50;;;1.60;80.30;;;2.04;51.99;99230.66;4951169;28;123966;-73
2023/01/21 04:28:21;;;;;;;14.63;6.87;;;1.60;80.50;;;2.01;52.37;99231.16;4961556;28;122796;-73
2023/01/21 04:30:48;;;;;;;11.63;7.13;;;1.60;80.60;;;1.99;52.31;99238.75;4937218;28;119408;-73
2023/01/21 04:33:16;;;;;;;14.37;7.27;;;1.60;80.60;;;1.98;52.39;99234.38;4959539;28;118102;-73
2023/01/21 04:35:42;;;;;;;12.07;8.00;;;1.50;80.60;;;1.96;52.36;99241.94;4944924;28;124861;-73
2023/01/21 04:38:10;;;;;;;9.43;6.93;;;1.50;80.80;;;1.93;52.35;99237.81;4952301;28;123769;-73
2023/01/21 04:40:36;;;;;;;10.37;5.83;;;1.50;80.90;;;1.91;52.59;99228.28;4953543;28;119167;-73
2023/01/21 04:43:03;;;;;;;13.77;6.97;;;1.50;80.90;;;1.91;52.17;99233.72;4949519;28;118813;-73
2023/01/21 04:45:29;;;;;;;11.97;7.73;;;1.50;81.00;;;1.90;52.85;99237.50;4950922;28;124275;-73
2023/01/21 04:47:56;;;;;;;18.97;8.43;;;1.40;81.00;;;1.83;52.68;99244.97;4951994;28;123959;-73
2023/01/21 04:50:23;;;;;;;19.57;9.87;;;1.30;81.00;;;1.75;52.84;99246.22;4957279;28;119252;-73
2023/01/21 04:52:50;;;;;;;13.00;7.73;;;1.30;81.40;;;1.68;52.80;99240.91;4954465;28;97377;-73
2023/01/21 04:55:17;;;;;;;14.23;7.57;;;1.20;81.50;;;1.68;53.16;99251.00;4955054;28;124019;-73
2023/01/21 04:57:44;;;;;;;15.30;6.77;;;1.20;81.80;;;1.66;52.98;99243.03;4954854;28;124894;-73
2023/01/21 05:00:11;;;;;;;9.87;6.27;;;1.20;81.80;;;1.69;52.93;99241.72;4957267;28;119886;-73
2023/01/21 05:02:37;;;;;;;9.60;6.40;;;1.20;81.80;;;1.70;53.22;99249.66;4955202;28;118773;-73
2023/01/21 05:05:04;;;;;;;13.40;7.20;;;1.20;81.80;;;1.75;53.31;99248.94;4957156;28;124074;-73
2023/01/21 05:07:31;;;;;;;10.43;6.83;;;1.30;81.90;;;1.76;53.06;99254.13;4956506;28;123339;-72
2023/01/21 05:09:57;;;;;;;12.77;7.30;;;1.30;81.80;;;1.75;52.97;99257.13;4947287;28;120209;-73
2023/01/21 05:12:24;;;;;;;13.60;7.67;;;1.30;81.90;;;1.73;53.10;99253.81;4957802;28;119796;-73
2023/01/21 05:14:56;;;;;;;14.20;7.93;;;1.30;82.00;;;1.74;53.44;99248.09;4954155;28;123966;-73
2023/01/21 05:17:23;;;;;;;12.53;6.87;;;1.30;82.00;;;1.72;53.35;99261.16;4973132;28;124255;-73
2023/01/21 05:19:49;;;;;;;11.10;8.03;;;1.30;82.10;;;1.71;53.40;99262.22;4955296;28;119271;-73
2023/01/21 05:22:17;;;;;;;14.97;7.90;;;1.20;82.10;;;1.65;53.28;99271.38;4954227;28;118991;-73
2023/01/21 05:24:43;;;;;;;18.00;8.80;;;1.20;82.20;;;1.57;53.69;99268.19;4953949;28;123792;-73
2023/01/21 05:27:10;;;;;;;12.13;6.90;;;2.30;83.40;;;1.54;53.48;99270.34;4956853;28;124171;-73
2023/01/21 05:29:36;;;;;;;16.93;7.70;;;1.10;82.40;;;1.49;53.76;99264.78;4961459;28;119102;-73
2023/01/21 05:32:04;;;;;;;13.23;7.90;;;1.00;82.50;;;1.49;53.57;99263.97;4953694;28;119122;-73
2023/01/21 05:34:49;;;;;;;13.40;8.03;;;1.00;82.60;;;1.55;53.74;99263.81;4956183;28;124460;-77
2023/01/21 05:37:16;;;;;;;12.83;7.10;;;1.00;82.60;;;1.52;53.62;99268.91;4963191;28;123779;-76
2023/01/21 05:39:43;;;;;;;12.13;7.20;;;1.00;82.50;;;1.54;53.96;99269.50;4960013;28;118313;-73
2023/01/21 05:42:09;;;;;;;10.60;7.03;;;1.10;82.60;;;1.55;54.08;99273.88;4961090;28;118497;-76
2023/01/21 05:44:37;;;;;;;10.63;6.43;;;1.10;82.60;;;1.58;53.72;99273.38;4961175;28;123929;-75
2023/01/21 05:47:04;;;;;;;10.10;6.23;;;1.10;82.70;;;1.61;54.04;99275.63;4957371;28;123540;-73
2023/01/21 05:49:30;;;;;;;14.73;5.80;;;1.10;82.60;;;1.63;53.46;99278.13;4944178;28;119068;-73
2023/01/21 05:51:57;;;;;;;10.47;6.17;;;1.20;82.70;;;1.65;53.64;99284.97;4945954;28;119051;-73
2023/01/21 05:54:23;;;;;;;10.17;5.90;;;1.20;82.70;;;1.67;53.90;99287.47;4945325;28;123848;-73
2023/01/21 05:56:50;;;;;;;13.33;7.30;;;1.20;82.70;;;1.67;53.88;99291.03;4949532;28;123388;-73
2023/01/21 05:59:16;;;;;;;11.73;6.90;;;1.20;82.70;;;1.65;53.43;99290.44;4960329;28;119096;-73
2023/01/21 06:01:42;;;;;;;16.13;8.80;;;1.20;82.70;;;1.57;53.78;99290.81;4947522;28;119887;-73
2023/01/21 06:04:09;;;;;;;11.13;7.07;;;1.10;82.70;;;1.54;54.16;99296.75;4947880;28;123872;-73
2023/01/21 06:06:35;;;;;;;12.10;7.20;;;1.10;82.80;;;1.51;54.13;99308.13;4946138;28;123800;-73
2023/01/21 06:09:02;;;;;;;11.00;7.40;;;1.10;82.80;;;1.48;53.96;99312.16;4950987;28;119319;-73
2023/01/21 06:11:29;;;;;;;9.07;6.93;;;1.10;82.90;;;1.46;54.61;99316.19;4955927;28;118932;-74
2023/01/21 06:13:55;;;;;;;14.63;8.20;;;1.00;83.00;;;1.43;54.61;99311.22;4951334;28;124285;-73
2023/01/21 06:16:22;;;;;;;12.27;7.00;;;0.90;83.10;;;1.43;54.83;99319.38;4949567;28;124347;-73
2023/01/21 06:18:48;;;;;;;13.20;8.40;;;0.90;83.30;;;1.43;54.69;99314.75;4953197;28;119228;-73
2023/01/21 06:21:15;;;;;;;12.97;7.83;;;1.00;84.10;;;1.41;54.89;99316.88;4953878;28;118240;-73
2023/01/21 06:23:41;;;;;;;12.63;8.07;;;1.00;83.50;;;1.42;54.54;99323.16;4962193;28;122889;-75
2023/01/21 06:26:08;;;;;;;11.43;7.80;;;1.00;83.60;;;1.41;54.86;99321.50;4967461;28;122875;-73
2023/01/21 06:28:34;;;;;;;14.70;9.10;;;1.00;83.60;;;1.39;54.31;99320.91;4955902;28;119231;-73
2023/01/21 06:31:01;;;;;;;14.37;8.00;;;1.00;83.70;;;1.33;55.08;99320.81;4951274;28;118953;-73
2023/01/21 06:33:27;;;;;;;15.03;8.93;;;1.00;83.60;;;1.29;54.81;99330.53;4948813;28;123543;-73
2023/01/21 06:35:54;;;;;;;12.80;7.97;;;0.90;83.60;;;1.27;55.16;99327.22;4958675;28;123846;-73
2023/01/21 06:38:20;;;;;;;14.07;9.27;;;0.90;83.70;;;1.25;55.39;99336.69;4967387;28;119289;-74
2023/01/21 06:40:46;;;;;;;16.20;9.13;;;0.90;83.80;;;1.25;55.11;99337.50;4957473;28;119081;-73
2023/01/21 06:43:14;;;;;;;15.50;9.40;;;0.90;83.90;;;1.25;54.88;99344.84;4945040;28;123990;-72
2023/01/21 06:45:40;;;;;;;14.10;9.60;;;0.90;84.00;;;1.25;55.14;99350.28;4950903;28;123711;-73
2023/01/21 06:48:07;;;;;;;20.23;11.37;;;0.90;84.10;;;1.24;54.96;99357.63;4948880;28;120178;-72
2023/01/21 06:50:33;;;;;;;16.23;10.30;;;0.90;84.10;;;1.22;55.61;99359.75;4951050;28;120019;-73
2023/01/21 06:53:00;;;;;;;17.23;11.53;;;0.80;84.20;;;1.21;55.56;99363.56;4958845;28;123069;-73
2023/01/21 06:55:27;;;;;;;20.20;10.40;;;0.80;84.30;;;1.21;55.11;99354.53;4952277;28;124280;-73
2023/01/21 06:57:53;;;;;;;17.13;10.60;;;0.80;84.30;;;1.19;55.39;99373.03;4964124;28;118718;-73
2023/01/21 07:00:20;;;;;;;14.70;9.77;;;0.80;84.50;;;1.17;55.50;99369.69;4957337;28;119054;-73
2023/01/21 07:02:48;;;;;;;17.43;10.50;;;0.70;84.40;;;1.15;55.48;99375.38;4972159;28;124422;-73
2023/01/21 07:05:15;;;;;;;18.67;10.40;;;2.00;85.70;;;1.14;55.73;99376.44;4962799;28;123720;-73
2023/01/21 07:07:41;;;;;;;22.60;11.60;;;0.70;84.70;;;1.13;55.79;99380.25;4958254;28;119793;-72
2023/01/21 07:10:09;;;;;;;20.97;11.97;;;0.70;84.70;;;1.11;55.66;99387.81;4955388;28;119075;-72
2023/01/21 07:12:35;;;;;;;18.07;11.30;;;0.70;84.70;;;1.10;55.55;99397.03;4935543;28;123403;-72
2023/01/21 07:15:02;;;;;;;31.20;14.97;;;0.70;84.80;;;1.08;56.04;99399.16;4953353;28;123832;-73
2023/01/21 07:17:28;;;;;;;23.93;13.80;;;0.60;84.90;;;1.06;56.13;99393.94;4965366;28;118844;-72
2023/01/21 07:19:55;;;;;;;24.20;15.03;;;0.60;85.20;;;1.06;56.06;99396.66;4955308;28;119286;-73
2023/01/21 07:22:21;;;;;;;29.87;16.03;;;0.60;85.20;;;1.07;56.21;99397.50;4963822;28;122955;-73
2023/01/21 07:24:50;;;;;;;25.00;14.33;;;0.60;85.40;;;1.07;56.32;99419.25;4954647;28;123875;-73
2023/01/21 07:27:16;;;;;;;23.77;13.80;;;0.60;85.40;;;1.03;56.51;99418.91;4953960;28;119187;-73
2023/01/21 07:29:43;;;;;;;27.23;16.27;;;0.50;85.60;;;1.01;56.05;99420.22;4951458;28;120243;-73
2023/01/21 07:32:09;;;;;;;30.00;16.50;;;0.50;85.70;;;0.99;56.52;99433.22;4957862;28;123975;-78
2023/01/21 07:34:36;;;;;;;27.40;16.13;;;0.50;85.90;;;0.90;56.60;99435.44;4954745;28;124262;-77
2023/01/21 07:37:03;;;;;;;26.47;15.20;;;0.40;86.80;;;0.77;57.32;99436.47;4928493;28;120531;-72
2023/01/21 07:39:29;;;;;;;27.80;15.00;;;0.20;87.00;;;0.71;56.79;99431.97;4958411;28;119903;-72
2023/01/21 07:41:56;;;;;;;27.87;16.17;;;-0.70;86.10;;;0.72;57.37;99432.81;4956509;28;123917;-73
2023/01/21 07:44:22;;;;;;;25.30;13.73;;;0.20;87.00;;;0.71;56.97;99429.25;4954199;28;123757;-73
2023/01/21 07:46:50;;;;;;;31.07;16.00;;;0.20;87.00;;;0.70;57.52;99432.19;4947247;28;119138;-73
2023/01/21 07:49:17;;;;;;;23.90;13.90;;;0.20;87.30;;;0.65;57.24;99439.19;4953365;28;118191;-73
2023/01/21 07:51:47;;;;;;;26.70;15.30;;;0.10;87.10;;;0.68;57.60;99442.50;4949496;28;124392;-74
2023/01/21 07:54:14;;;;;;;25.33;14.27;;;0.10;87.30;;;0.66;56.98;99440.00;4954922;28;124223;-73
2023/01/21 07:56:41;;;;;;;27.60;14.60;;;0.10;87.20;;;0.67;57.83;99441.66;4944989;28;118591;-74
2023/01/21 07:59:09;;;;;;;22.70;13.57;;;0.20;87.70;;;0.64;57.82;99442.13;4931048;28;119119;-73
2023/01/21 08:01:36;;;;;;;27.80;14.27;;;0.10;87.70;;;0.64;57.70;99448.38;4932087;28;124873;-73
2023/01/21 08:04:02;;;;;;;27.70;13.57;;;0.10;87.60;;;0.64;57.78;99450.28;4933312;28;123824;-73
2023/01/21 08:06:29;;;;;;;26.80;14.40;;;0.10;87.60;;;0.65;57.81;99447.34;4939714;28;119377;-73
2023/01/21 08:08:55;;;;;;;25.70;14.43;;;0.10;87.70;;;0.67;58.04;99457.97;4930437;28;119339;-73
2023/01/21 08:11:22;;;;;;;24.63;13.63;;;0.10;87.80;;;0.68;57.72;99443.31;4922443;28;123201;-73
2023/01/21 08:13:49;;;;;;;28.83;14.73;;;0.10;87.90;;;0.70;57.31;99440.34;4934659;28;124275;-74
2023/01/21 08:16:16;;;;;;;31.40;15.90;;;0.10;87.80;;;0.70;58.22;99452.09;4931646;28;118720;-73
2023/01/21 08:18:42;;;;;;;35.37;18.57;;;0.10;89.00;;;0.71;59.08;99458.34;4930296;28;118835;-78
2023/01/21 08:21:09;;;;;;;32.23;15.20;;;0.10;90.20;;;0.72;59.27;99449.94;4930228;28;123724;-74
2023/01/21 08:23:35;;;;;;;26.80;14.87;;;0.10;90.30;;;0.81;59.83;99453.19;4926851;28;123637;-74
2023/01/21 08:26:03;;;;;;;27.07;14.13;;;0.20;90.60;;;0.90;59.28;99450.94;4932627;28;120484;-73
2023/01/21 08:28:29;;;;;;;28.73;16.27;;;0.30;90.40;;;0.94;59.43;99450.25;4915648;28;119068;-73
2023/01/21 08:31:07;;;;;;;27.93;16.40;;;0.40;90.20;;;0.96;59.05;99450.84;4942020;28;123970;-74
2023/01/21 08:33:34;;;;;;;31.70;17.17;;;0.40;90.10;;;0.93;58.94;99450.47;4943209;28;123155;-73
2023/01/21 08:36:02;;;;;;;31.17;14.93;;;0.40;90.00;;;0.95;58.96;99453.81;4932582;28;119873;-73
2023/01/21 08:38:28;;;;;;;30.20;16.67;;;0.40;90.00;;;1.00;58.51;99448.50;4937303;28;119159;-74
2023/01/21 08:40:57;;;;;;;27.23;13.90;;;0.40;89.60;;;1.04;58.85;99446.94;4926996;28;123991;-74
2023/01/21 08:43:25;;;;;;;27.73;13.00;;;0.50;89.40;;;1.08;58.34;99448.16;4928757;28;122972;-74
2023/01/21 08:45:55;;;;;;;23.60;13.07;;;0.60;89.20;;;1.14;57.98;99443.66;4930066;28;118256;-76
2023/01/21 08:48:22;;;;;;;23.73;13.20;;;0.70;89.10;;;1.16;58.21;99447.81;4938170;28;118656;-74
2023/01/21 08:50:48;;;;;;;25.37;13.03;;;0.70;88.80;;;1.19;57.68;99450.06;4936215;28;123972;-73
2023/01/21 08:53:15;;;;;;;25.03;14.27;;;0.70;88.70;;;1.19;57.86;99451.94;4937365;28;124033;-73
2023/01/21 08:55:41;;;;;;;26.27;14.57;;;0.70;88.50;;;1.20;57.73;99450.88;4948604;28;119334;-74
2023/01/21 08:58:08;;;;;;;20.77;12.57;;;0.70;88.40;;;1.17;57.46;99452.16;4950858;28;119024;-74
2023/01/21 09:00:34;;;;;;;26.00;13.87;;;0.70;88.30;;;1.15;57.58;99450.75;4958572;28;123686;-74
2023/01/21 09:03:01;;;;;;;33.97;14.70;;;0.70;88.30;;;1.16;57.76;99453.25;4955894;28;122923;-74
2023/01/21 09:05:27;;;;;;;23.93;13.83;;;0.70;88.40;;;1.17;57.44;99451.34;4959013;28;119013;-74
2023/01/21 09:07:54;;;;;;;24.90;11.93;;;0.70;88.30;;;1.17;57.35;99444.00;4958600;28;118060;-74
2023/01/21 09:13:09;;;;;;;29.80;14.93;;;0.70;88.10;;;1.21;57.41;99447.94;4953147;28;124710;-73
2023/01/21 09:15:41;;;;;;;30.90;16.20;;;0.80;88.10;;;1.24;57.88;99446.63;4951243;28;120233;-73
2023/01/21 09:18:08;;;;;;;34.77;15.97;;;0.80;88.50;;;1.23;57.60;99453.13;4953541;28;120039;-73
2023/01/21 09:20:34;;;;;;;28.53;14.60;;;0.80;88.60;;;1.25;58.21;99451.00;4948614;28;122832;-73
2023/01/21 09:23:01;;;;;;;24.90;14.47;;;0.80;88.90;;;1.28;57.69;99458.69;4953200;28;124141;-74
2023/01/21 09:25:27;;;;;;;27.27;14.90;;;0.80;88.70;;;1.30;57.88;99451.13;4948198;28;119236;-73
2023/01/21 09:27:54;;;;;;;24.60;14.63;;;0.80;88.70;;;1.31;57.35;99459.03;4947361;28;118974;-73
2023/01/21 09:30:20;;;;;;;23.20;13.47;;;1.00;88.70;;;1.30;57.69;99456.56;4946666;28;123980;-73
2023/01/21 09:32:47;;;;;;;25.80;14.00;;;0.80;88.40;;;1.31;57.33;99458.22;4948375;28;123763;-73
2023/01/21 09:35:13;;;;;;;25.90;14.50;;;0.80;88.30;;;1.33;57.64;99459.63;4963530;28;118217;-73
2023/01/21 09:37:40;;;;;;;24.60;13.53;;;0.90;88.40;;;1.36;57.64;99455.63;4960519;28;118970;-74
2023/01/21 09:40:14;;;;;;;21.33;11.90;;;0.90;88.30;;;1.42;57.18;99465.56;4957643;28;123229;-73
2023/01/21 09:42:41;;;;;;;24.10;13.03;;;0.90;88.30;;;1.44;57.51;99470.78;4946256;28;124996;-73
2023/01/21 09:45:13;;;;;;;21.10;11.80;;;0.90;88.30;;;1.51;57.69;99468.78;4949592;28;119661;-72
2023/01/21 09:47:42;;;;;;;23.60;12.70;;;1.00;88.30;;;1.52;57.22;99475.88;4952358;28;117984;-72
2023/01/21 09:50:18;;;;;;;25.83;14.00;;;1.00;88.20;;;1.55;57.10;99472.66;4948504;28;126008;-73
2023/01/21 09:52:47;;;;;;;24.53;13.87;;;1.00;88.20;;;1.54;57.18;99476.47;4954849;28;123433;-75
2023/01/21 09:55:19;;;;;;;31.03;15.40;;;1.00;88.10;;;1.57;57.15;99475.16;4949960;28;119728;-72
2023/01/21 09:58:29;;;;;;;23.23;12.93;;;1.10;88.30;;;1.59;56.98;99479.31;4966106;28;119099;-77
2023/01/21 10:01:25;;;;;;;23.57;12.43;;;1.10;88.20;;;1.59;56.92;99482.03;4957005;28;123972;-74
2023/01/21 10:04:14;;;;;;;25.77;14.30;;;1.10;88.20;;;1.61;57.08;99474.44;4953601;28;122653;-73
2023/01/21 10:07:17;;;;;;;28.60;15.93;;;1.10;88.20;;;1.63;57.21;99471.47;4947720;28;120815;-72
2023/01/21 10:09:50;;;;;;;22.90;13.17;;;1.10;88.20;;;1.60;57.10;99475.50;4951917;28;120398;-72
2023/01/21 10:12:47;;;;;;;25.23;13.70;;;1.10;88.20;;;1.64;57.50;99467.69;4954582;28;123206;-72
2023/01/21 10:15:30;;;;;;;23.37;12.47;;;1.10;88.40;;;1.62;56.98;99462.50;4933489;28;123143;-72
2023/01/21 10:18:07;;;;;;;25.73;13.10;;;1.10;88.30;;;1.61;57.41;99469.00;4947431;28;118622;-74
2023/01/21 10:20:55;;;;;;;22.90;12.83;;;1.10;88.30;;;1.66;58.36;99471.81;4957536;28;118497;-72
2023/01/21 10:23:34;;;;;;;26.83;15.20;;;1.20;89.80;;;1.73;59.19;99478.00;4957708;28;124462;-72
2023/01/21 10:26:07;;;;;;;33.10;15.67;;;1.20;90.40;;;1.86;60.13;99482.38;4959685;28;123587;-73
2023/01/21 10:28:37;;;;;;;26.43;14.07;;;1.30;91.30;;;1.96;59.39;99471.69;4946039;28;119097;-73
2023/01/21 10:31:22;;;;;;;24.67;12.97;;;1.40;90.80;;;2.06;59.07;99473.78;4962581;28;118880;-73
2023/01/21 10:33:48;;;;;;;21.47;11.53;;;1.50;90.50;;;2.08;58.45;99468.94;4982581;28;123519;-72
2023/01/21 10:36:44;;;;;;;26.10;12.60;;;1.60;90.30;;;2.16;58.41;99475.91;4961751;28;124242;-73
2023/01/21 10:39:44;;;;;;;21.97;11.97;;;1.60;90.10;;;2.17;58.33;99478.38;4966918;28;119282;-73